Time;durP1;ratioP1;P1;durP2;ratioP2;P2;SDS_P1;SDS_P2;PMS_P1;PMS_P2;Temp;Humidity;BMP_temperature;BMP_pressure;BME280_temperature;BME280_humidity;BME280_pressure;Samples;Min_cycle;Max_cycle;Signal;HPM_P1;HPM_P2
2022/07/10 00:00:53;;;;;;;1.37;0.87;;;;;;;;;;5062540;28;20029;-63
2022/07/10 00:03:20;;;;;;;1.55;1.02;;;;;;;;;;5073311;28;20527;-63
2022/07/10 00:05:46;;;;;;;0.68;0.60;;;;;;;;;;5073429;28;20028;-63
2022/07/10 00:08:13;;;;;;;1.83;0.90;;;;;;;;;;5071444;28;20032;-63
2022/07/10 00:10:40;;;;;;;2.10;1.40;;;;;;;;;;5060504;28;20033;-63
2022/07/10 00:13:06;;;;;;;5.03;1.37;;;;;;;;;;5047866;28;20029;-63
2022/07/10 00:15:33;;;;;;;1.57;1.10;;;;;;;;;;5048043;28;20025;-63
2022/07/10 00:18:00;;;;;;;3.77;1.47;;;;;;;;;;5048891;28;20021;-63
2022/07/10 00:20:26;;;;;;;3.40;1.60;;;;;;;;;;5057505;28;20459;-63
2022/07/10 00:22:53;;;;;;;3.20;1.23;;;;;;;;;;5063640;28;20035;-63
2022/07/10 00:25:20;;;;;;;1.77;1.37;;;;;;;;;;5062149;28;20032;-63
2022/07/10 00:27:46;;;;;;;2.23;1.53;;;;;;;;;;5058358;28;20044;-63
2022/07/10 00:30:13;;;;;;;1.03;0.80;;;;;;;;;;5051659;28;20039;-63
2022/07/10 00:32:40;;;;;;;2.47;1.50;;;;;;;;;;5047760;28;20032;-64
2022/07/10 00:35:07;;;;;;;2.90;1.20;;;;;;;;;;5047591;28;20066;-64
2022/07/10 00:37:34;;;;;;;3.47;1.73;;;;;;;;;;5047867;28;20052;-65
2022/07/10 00:40:01;;;;;;;1.37;1.00;;;;;;;;;;5067870;28;20475;-65
2022/07/10 00:42:28;;;;;;;2.53;1.33;;;;;;;;;;5072707;28;20094;-64
2022/07/10 00:44:54;;;;;;;1.00;0.70;;;;;;;;;;5072808;28;20086;-63
2022/07/10 00:47:21;;;;;;;1.27;0.80;;;;;;;;;;5072394;28;20017;-64
2022/07/10 00:49:48;;;;;;;3.00;0.83;;;;;;;;;;5054337;28;20104;-63
2022/07/10 00:52:16;;;;;;;2.50;0.73;;;;;;;;;;5051939;28;20021;-64
2022/07/10 00:54:46;;;;;;;0.63;0.47;;;;;;;;;;5047476;28;20029;-64
2022/07/10 00:57:16;;;;;;;2.13;0.93;;;;;;;;;;5047533;28;20095;-64
2022/07/10 00:59:44;;;;;;;1.97;0.70;;;;;;;;;;5064064;28;20035;-64
2022/07/10 01:02:11;;;;;;;1.03;0.60;;;;;;;;;;5067161;28;20060;-64
2022/07/10 01:04:38;;;;;;;6.53;0.80;;;;;;;;;;5072296;28;20620;-64
2022/07/10 01:07:04;;;;;;;0.50;0.40;;;;;;;;;;5072564;28;20021;-64
2022/07/10 01:09:32;;;;;;;1.73;0.57;;;;;;;;;;5064595;28;20028;-64
2022/07/10 01:12:00;;;;;;;0.47;0.47;;;;;;;;;;5072639;28;20395;-64
2022/07/10 01:14:28;;;;;;;1.17;0.50;;;;;;;;;;5070880;28;20027;-66
2022/07/10 01:16:54;;;;;;;2.73;0.87;;;;;;;;;;5067114;28;20035;-66
2022/07/10 01:19:21;;;;;;;1.27;0.53;;;;;;;;;;5060688;28;20586;-66
2022/07/10 01:21:48;;;;;;;0.70;0.50;;;;;;;;;;5047102;28;20391;-66
2022/07/10 01:24:15;;;;;;;0.40;0.37;;;;;;;;;;5047106;28;20037;-65
2022/07/10 01:26:42;;;;;;;1.60;0.73;;;;;;;;;;5052099;28;20112;-65
2022/07/10 01:29:10;;;;;;;1.03;0.67;;;;;;;;;;5055642;28;20021;-65
2022/07/10 01:31:36;;;;;;;0.30;0.30;;;;;;;;;;5072086;28;20032;-66
2022/07/10 01:34:05;;;;;;;1.63;0.47;;;;;;;;;;5072353;28;20543;-65
2022/07/10 01:36:32;;;;;;;0.20;0.13;;;;;;;;;;5071848;28;20028;-65
2022/07/10 01:38:59;;;;;;;1.03;0.50;;;;;;;;;;5064374;28;20024;-65
2022/07/10 01:41:27;;;;;;;1.27;0.43;;;;;;;;;;5047062;28;20037;-65
2022/07/10 01:43:54;;;;;;;0.30;0.30;;;;;;;;;;5046693;28;20411;-65
2022/07/10 01:46:21;;;;;;;2.57;0.93;;;;;;;;;;5046842;28;20021;-65
2022/07/10 01:48:47;;;;;;;1.10;0.50;;;;;;;;;;5051576;28;20468;-66
2022/07/10 01:51:14;;;;;;;1.00;0.40;;;;;;;;;;5071811;28;20029;-65
2022/07/10 01:53:41;;;;;;;1.60;0.37;;;;;;;;;;5072027;28;20082;-65
2022/07/10 01:56:09;;;;;;;0.30;0.30;;;;;;;;;;5071966;28;20025;-65
2022/07/10 01:58:36;;;;;;;0.60;0.50;;;;;;;;;;5071963;28;20056;-65
2022/07/10 02:01:04;;;;;;;1.50;0.63;;;;;;;;;;5047062;28;20029;-66
2022/07/10 02:06:15;;;;;;;;;;;;;;;;;;5047115;28;20091;-66
2022/07/10 02:08:42;;;;;;;0.20;0.20;;;;;;;;;;5046612;28;19919;-65
2022/07/10 02:11:09;;;;;;;1.67;0.53;;;;;;;;;;5070704;28;20091;-65
2022/07/10 02:13:36;;;;;;;1.77;0.50;;;;;;;;;;5071765;28;20031;-65
2022/07/10 02:16:03;;;;;;;1.70;0.50;;;;;;;;;;5071718;28;20167;-65
2022/07/10 02:18:32;;;;;;;2.63;0.90;;;;;;;;;;5071708;28;20082;-65
2022/07/10 02:20:59;;;;;;;0.30;0.30;;;;;;;;;;5053429;28;20032;-65
2022/07/10 02:23:25;;;;;;;1.87;0.83;;;;;;;;;;5046386;28;20136;-65
2022/07/10 02:25:52;;;;;;;0.60;0.50;;;;;;;;;;5049106;28;20032;-65
2022/07/10 02:28:18;;;;;;;1.30;0.50;;;;;;;;;;5050253;28;20025;-65
2022/07/10 02:30:45;;;;;;;1.57;0.70;;;;;;;;;;5065521;28;20059;-65
2022/07/10 02:33:12;;;;;;;0.40;0.20;;;;;;;;;;5074664;28;20021;-63
2022/07/10 02:35:38;;;;;;;2.63;0.80;;;;;;;;;;5074859;28;20040;-63
2022/07/10 02:38:05;;;;;;;1.73;0.60;;;;;;;;;;5075081;28;20036;-63
2022/07/10 02:40:32;;;;;;;3.27;0.50;;;;;;;;;;5061394;28;20029;-63
2022/07/10 02:42:58;;;;;;;2.53;0.80;;;;;;;;;;5055127;28;20098;-63
2022/07/10 02:45:25;;;;;;;0.50;0.27;;;;;;;;;;5050328;28;20025;-63
2022/07/10 02:47:52;;;;;;;0.80;0.50;;;;;;;;;;5049994;28;20102;-63
2022/07/10 02:50:18;;;;;;;0.40;0.40;;;;;;;;;;5051707;28;20032;-63
2022/07/10 02:52:45;;;;;;;2.03;0.50;;;;;;;;;;5049628;28;20488;-64
2022/07/10 02:55:12;;;;;;;1.33;0.60;;;;;;;;;;5053619;28;20028;-63
2022/07/10 02:57:38;;;;;;;0.50;0.40;;;;;;;;;;5068001;28;20347;-64
2022/07/10 03:00:05;;;;;;;0.47;0.43;;;;;;;;;;5075121;28;20115;-63
2022/07/10 03:02:32;;;;;;;2.70;0.60;;;;;;;;;;5074669;28;20038;-63
2022/07/10 03:04:59;;;;;;;0.47;0.30;;;;;;;;;;5074786;28;20024;-63
2022/07/10 03:07:25;;;;;;;0.80;0.40;;;;;;;;;;5059656;28;20068;-63
2022/07/10 03:09:53;;;;;;;1.43;0.70;;;;;;;;;;5048999;28;20029;-64
2022/07/10 03:12:20;;;;;;;7.10;1.47;;;;;;;;;;5049500;28;20025;-63
2022/07/10 03:14:46;;;;;;;1.63;1.03;;;;;;;;;;5049319;28;20082;-63
2022/07/10 03:17:13;;;;;;;3.37;1.27;;;;;;;;;;5062520;28;20028;-63
2022/07/10 03:19:40;;;;;;;1.10;0.80;;;;;;;;;;5074537;28;20070;-63
2022/07/10 03:22:06;;;;;;;4.90;1.50;;;;;;;;;;5074342;28;20040;-63
2022/07/10 03:24:33;;;;;;;5.73;1.33;;;;;;;;;;5074390;28;20032;-63
2022/07/10 03:27:00;;;;;;;2.87;1.40;;;;;;;;;;5066278;28;20383;-64
2022/07/10 03:29:26;;;;;;;2.23;0.93;;;;;;;;;;5050636;28;20082;-63
2022/07/10 03:31:53;;;;;;;1.37;0.90;;;;;;;;;;5066660;28;20036;-64
2022/07/10 03:34:19;;;;;;;1.37;0.87;;;;;;;;;;5069067;28;20032;-63
2022/07/10 03:36:46;;;;;;;1.43;0.77;;;;;;;;;;5063140;28;20025;-64
2022/07/10 03:39:13;;;;;;;4.63;0.97;;;;;;;;;;5051677;28;20025;-63
2022/07/10 03:41:39;;;;;;;7.23;2.10;;;;;;;;;;5053781;28;20036;-63
2022/07/10 03:44:06;;;;;;;1.43;0.93;;;;;;;;;;5053373;28;20052;-63
2022/07/10 03:46:33;;;;;;;3.47;1.30;;;;;;;;;;5056497;28;20024;-63
2022/07/10 03:48:59;;;;;;;1.37;1.03;;;;;;;;;;5073736;28;20020;-63
2022/07/10 03:51:26;;;;;;;1.57;0.93;;;;;;;;;;5070684;28;20021;-64
2022/07/10 03:53:53;;;;;;;1.30;0.87;;;;;;;;;;5068593;28;20032;-64
2022/07/10 03:59:04;;;;;;;1.58;1.15;;;;;;;;;;5048190;28;20552;-63
2022/07/10 04:01:31;;;;;;;2.20;1.27;;;;;;;;;;5051128;28;20032;-63
2022/07/10 04:03:57;;;;;;;0.93;0.73;;;;;;;;;;5053618;28;20021;-63
2022/07/10 04:06:24;;;;;;;2.13;1.00;;;;;;;;;;5054216;28;20028;-64
2022/07/10 04:08:51;;;;;;;0.40;0.40;;;;;;;;;;5073464;28;20143;-63
2022/07/10 04:11:18;;;;;;;2.83;1.13;;;;;;;;;;5073278;28;20024;-63
2022/07/10 04:13:44;;;;;;;1.40;0.83;;;;;;;;;;5055333;28;20095;-63
2022/07/10 04:16:12;;;;;;;4.73;0.70;;;;;;;;;;5047909;28;20021;-63
2022/07/10 04:18:40;;;;;;;1.97;0.83;;;;;;;;;;5049125;28;20111;-64
2022/07/10 04:21:06;;;;;;;3.80;1.17;;;;;;;;;;5047975;28;20056;-63
2022/07/10 04:23:33;;;;;;;2.80;1.57;;;;;;;;;;5050580;28;20025;-63
2022/07/10 04:26:00;;;;;;;1.53;1.00;;;;;;;;;;5053295;28;20104;-63
2022/07/10 04:28:27;;;;;;;1.97;1.47;;;;;;;;;;5069624;28;20379;-63
2022/07/10 04:30:54;;;;;;;3.97;1.70;;;;;;;;;;5065082;28;20025;-64
2022/07/10 04:33:20;;;;;;;2.47;1.20;;;;;;;;;;5052903;28;20028;-63
2022/07/10 04:35:47;;;;;;;0.70;0.70;;;;;;;;;;5050278;28;20025;-63
2022/07/10 04:38:14;;;;;;;1.23;0.70;;;;;;;;;;5047790;28;20049;-63
2022/07/10 04:40:40;;;;;;;1.17;0.83;;;;;;;;;;5051932;28;20032;-63
2022/07/10 04:43:07;;;;;;;0.93;0.87;;;;;;;;;;5067567;28;20028;-63
2022/07/10 04:45:34;;;;;;;36.67;2.70;;;;;;;;;;5069382;28;20357;-63
2022/07/10 04:48:01;;;;;;;4.43;1.43;;;;;;;;;;5072280;28;20490;-63
2022/07/10 04:50:27;;;;;;;1.67;1.17;;;;;;;;;;5069481;28;20059;-63
2022/07/10 04:52:54;;;;;;;2.47;1.37;;;;;;;;;;5052713;28;20036;-63
2022/07/10 04:55:21;;;;;;;1.10;0.80;;;;;;;;;;5052644;28;20025;-63
2022/07/10 04:57:48;;;;;;;0.83;0.67;;;;;;;;;;5050019;28;20036;-63
2022/07/10 05:00:15;;;;;;;1.03;0.87;;;;;;;;;;5047627;28;20494;-63
2022/07/10 05:02:42;;;;;;;2.63;1.57;;;;;;;;;;5066961;28;20028;-62
2022/07/10 05:05:09;;;;;;;3.87;1.67;;;;;;;;;;5067244;28;20321;-63
2022/07/10 05:07:35;;;;;;;5.70;1.83;;;;;;;;;;5068592;28;20036;-63
2022/07/10 05:10:02;;;;;;;2.40;1.10;;;;;;;;;;5057997;28;20033;-63
2022/07/10 05:12:29;;;;;;;4.93;1.03;;;;;;;;;;5062303;28;20034;-62
2022/07/10 05:14:56;;;;;;;3.63;1.20;;;;;;;;;;5072329;28;20028;-63
2022/07/10 05:17:23;;;;;;;1.80;1.00;;;;;;;;;;5055325;28;20051;-63
2022/07/10 05:19:51;;;;;;;2.00;1.17;;;;;;;;;;5050256;28;20039;-63
2022/07/10 05:22:18;;;;;;;5.03;1.40;;;;;;;;;;5056033;28;20406;-62
2022/07/10 05:24:44;;;;;;;9.30;1.83;;;;;;;;;;5063702;28;20036;-63
2022/07/10 05:27:11;;;;;;;1.77;1.03;;;;;;;;;;5067146;28;20020;-63
2022/07/10 05:29:38;;;;;;;0.97;0.80;;;;;;;;;;5066940;28;20122;-64
2022/07/10 05:32:04;;;;;;;2.57;1.17;;;;;;;;;;5056592;28;20545;-63
2022/07/10 05:34:31;;;;;;;2.80;1.53;;;;;;;;;;5053673;28;20052;-63
2022/07/10 05:36:58;;;;;;;4.10;1.23;;;;;;;;;;5052248;28;20422;-63
2022/07/10 05:39:26;;;;;;;2.33;1.37;;;;;;;;;;5066695;28;20487;-62
2022/07/10 05:41:54;;;;;;;2.83;1.33;;;;;;;;;;5056636;28;20072;-63
2022/07/10 05:44:20;;;;;;;2.17;1.10;;;;;;;;;;5059548;28;20102;-63
2022/07/10 05:46:47;;;;;;;6.97;1.40;;;;;;;;;;5066490;28;20061;-63
2022/07/10 05:49:14;;;;;;;2.90;1.07;;;;;;;;;;5054568;28;20025;-64
2022/07/10 05:51:40;;;;;;;2.03;1.63;;;;;;;;;;5058335;28;20086;-63
2022/07/10 05:54:08;;;;;;;0.90;0.90;;;;;;;;;;5060711;28;20048;-63
2022/07/10 05:56:35;;;;;;;2.53;1.80;;;;;;;;;;5052164;28;20126;-63
2022/07/10 05:59:01;;;;;;;1.07;0.93;;;;;;;;;;5061219;28;20059;-63
2022/07/10 06:01:28;;;;;;;4.07;1.80;;;;;;;;;;5068745;28;20090;-63
2022/07/10 06:03:55;;;;;;;2.03;1.07;;;;;;;;;;5063330;28;20091;-63
2022/07/10 06:06:22;;;;;;;16.93;2.40;;;;;;;;;;5050159;28;20575;-63
2022/07/10 06:08:48;;;;;;;9.07;1.97;;;;;;;;;;5051515;28;20036;-63
2022/07/10 06:11:16;;;;;;;1.33;1.23;;;;;;;;;;5062891;28;20059;-63
2022/07/10 06:13:42;;;;;;;5.07;2.30;;;;;;;;;;5051920;28;20045;-63
2022/07/10 06:16:09;;;;;;;14.27;2.07;;;;;;;;;;5052745;28;20025;-63
2022/07/10 06:18:36;;;;;;;3.23;2.10;;;;;;;;;;5054461;28;20079;-63
2022/07/10 06:21:02;;;;;;;6.30;2.50;;;;;;;;;;5060138;28;20099;-63
2022/07/10 06:23:29;;;;;;;3.03;1.57;;;;;;;;;;5075425;28;20025;-63
2022/07/10 06:25:56;;;;;;;2.07;1.30;;;;;;;;;;5075052;28;20052;-63
2022/07/10 06:28:23;;;;;;;2.77;1.47;;;;;;;;;;5069932;28;20017;-63
2022/07/10 06:30:49;;;;;;;2.90;1.83;;;;;;;;;;5066226;28;20052;-63
2022/07/10 06:33:16;;;;;;;3.43;1.40;;;;;;;;;;5049660;28;20124;-63
2022/07/10 06:35:43;;;;;;;3.80;2.07;;;;;;;;;;5050325;28;20379;-63
2022/07/10 06:38:10;;;;;;;5.27;2.20;;;;;;;;;;5054800;28;20052;-62
2022/07/10 06:40:38;;;;;;;1.40;1.20;;;;;;;;;;5055701;28;20025;-61
2022/07/10 06:43:04;;;;;;;2.60;1.50;;;;;;;;;;5075135;28;20185;-62
2022/07/10 06:45:31;;;;;;;1.50;1.33;;;;;;;;;;5074989;28;20029;-61
2022/07/10 06:48:00;;;;;;;1.67;1.37;;;;;;;;;;5074910;28;20104;-61
2022/07/10 06:50:33;;;;;;;12.17;3.50;;;;;;;;;;5069518;28;20181;-61
2022/07/10 06:53:00;;;;;;;3.90;1.67;;;;;;;;;;5049391;28;20033;-61
2022/07/10 06:55:27;;;;;;;3.73;1.63;;;;;;;;;;5049774;28;20147;-61
2022/07/10 06:57:54;;;;;;;7.37;2.97;;;;;;;;;;5049490;28;20395;-61
2022/07/10 07:00:21;;;;;;;4.70;2.37;;;;;;;;;;5054551;28;20476;-61
2022/07/10 07:02:48;;;;;;;2.23;2.00;;;;;;;;;;5072081;28;20383;-61
2022/07/10 07:05:15;;;;;;;2.90;2.27;;;;;;;;;;5074691;28;20029;-61
2022/07/10 07:07:41;;;;;;;4.77;3.07;;;;;;;;;;5074255;28;20379;-61
2022/07/10 07:10:08;;;;;;;4.57;2.47;;;;;;;;;;5074555;28;20040;-61
2022/07/10 07:12:35;;;;;;;5.83;2.47;;;;;;;;;;5051444;28;20037;-61
2022/07/10 07:15:02;;;;;;;5.40;3.33;;;;;;;;;;5049212;28;20119;-61
2022/07/10 07:17:45;;;;;;;8.93;4.63;;;;;;;;;;5049183;28;20547;-61
2022/07/10 07:23:10;;;;;;;3.03;2.27;;;;;;;;;;5073199;28;20182;-61
2022/07/10 07:25:39;;;;;;;4.87;2.93;;;;;;;;;;5074142;28;20082;-61
2022/07/10 07:28:07;;;;;;;6.33;2.37;;;;;;;;;;5074142;28;20407;-61
2022/07/10 07:30:33;;;;;;;23.83;1.50;;;;;;;;;;5073909;28;20468;-61
2022/07/10 07:33:00;;;;;;;1.63;1.00;;;;;;;;;;5052939;28;20490;-61
2022/07/10 07:35:27;;;;;;;2.53;1.80;;;;;;;;;;5048913;28;20032;-61
2022/07/10 07:37:54;;;;;;;1.70;1.27;;;;;;;;;;5048604;28;20104;-61
2022/07/10 07:40:23;;;;;;;2.33;1.83;;;;;;;;;;5048679;28;20151;-61
2022/07/10 07:42:53;;;;;;;8.90;2.63;;;;;;;;;;5066747;28;20028;-61
2022/07/10 07:45:20;;;;;;;4.57;1.80;;;;;;;;;;5073597;28;20032;-61
2022/07/10 07:47:48;;;;;;;2.63;1.43;;;;;;;;;;5073926;28;20028;-61
2022/07/10 07:50:15;;;;;;;4.83;2.73;;;;;;;;;;5074013;28;20027;-61
2022/07/10 07:52:42;;;;;;;5.70;3.03;;;;;;;;;;5057192;28;20369;-60
2022/07/10 07:55:10;;;;;;;4.87;2.00;;;;;;;;;;5052572;28;20067;-60
2022/07/10 07:57:37;;;;;;;2.17;1.83;;;;;;;;;;5048296;28;20029;-61
2022/07/10 08:00:05;;;;;;;3.30;2.13;;;;;;;;;;5047846;28;20040;-61
2022/07/10 08:02:32;;;;;;;1.90;1.43;;;;;;;;;;5062749;28;20029;-61
2022/07/10 08:04:58;;;;;;;3.30;2.03;;;;;;;;;;5068559;28;20028;-61
2022/07/10 08:07:34;;;;;;;3.27;1.60;;;;;;;;;;5073600;28;20082;-61
2022/07/10 08:10:00;;;;;;;4.73;1.73;;;;;;;;;;5073486;28;20040;-61
2022/07/10 08:12:27;;;;;;;2.30;1.20;;;;;;;;;;5058947;28;20036;-61
2022/07/10 08:14:54;;;;;;;2.13;0.87;;;;;;;;;;5053285;28;20028;-60
2022/07/10 08:17:21;;;;;;;0.93;0.83;;;;;;;;;;5052558;28;20025;-61
2022/07/10 08:19:48;;;;;;;0.70;0.70;;;;;;;;;;5047868;28;20032;-61
2022/07/10 08:22:15;;;;;;;1.37;0.87;;;;;;;;;;5059538;28;20037;-60
2022/07/10 08:24:41;;;;;;;2.90;1.50;;;;;;;;;;5067892;28;20497;-61
2022/07/10 08:27:08;;;;;;;2.73;1.13;;;;;;;;;;5068058;28;20049;-61
2022/07/10 08:29:35;;;;;;;1.93;1.43;;;;;;;;;;5072559;28;20442;-61
2022/07/10 08:32:02;;;;;;;2.13;1.27;;;;;;;;;;5062660;28;20384;-61
2022/07/10 08:34:28;;;;;;;2.67;1.50;;;;;;;;;;5053231;28;20369;-61
2022/07/10 08:36:55;;;;;;;0.87;0.87;;;;;;;;;;5053024;28;20459;-61
2022/07/10 08:39:22;;;;;;;1.60;0.83;;;;;;;;;;5052246;28;20471;-61
2022/07/10 08:41:50;;;;;;;1.40;1.03;;;;;;;;;;5054931;28;20037;-61
2022/07/10 08:44:19;;;;;;;1.07;0.97;;;;;;;;;;5050625;28;20086;-61
2022/07/10 08:46:46;;;;;;;2.33;1.57;;;;;;;;;;5047662;28;20104;-61
2022/07/10 08:49:13;;;;;;;0.73;0.60;;;;;;;;;;5047255;28;20029;-61
2022/07/10 08:51:40;;;;;;;2.80;1.20;;;;;;;;;;5052867;28;20033;-60
2022/07/10 08:54:08;;;;;;;1.23;1.13;;;;;;;;;;5066702;28;20041;-61
2022/07/10 08:56:36;;;;;;;2.13;1.27;;;;;;;;;;5070460;28;20016;-61
2022/07/10 08:59:06;;;;;;;2.27;1.27;;;;;;;;;;5072566;28;20077;-61
2022/07/10 09:01:32;;;;;;;1.80;0.93;;;;;;;;;;5071822;28;20095;-61
2022/07/10 09:03:59;;;;;;;2.63;1.97;;;;;;;;;;5065333;28;20696;-61
2022/07/10 09:06:28;;;;;;;3.87;1.47;;;;;;;;;;5067101;28;20091;-60
2022/07/10 09:09:03;;;;;;;2.50;0.80;;;;;;;;;;5067024;28;20107;-60
2022/07/10 09:11:30;;;;;;;1.55;0.82;;;;;;;;;;5055092;28;20471;-61
2022/07/10 09:13:59;;;;;;;1.70;1.13;;;;;;;;;;5051966;28;20033;-61
2022/07/10 09:16:32;;;;;;;2.17;0.93;;;;;;;;;;5052590;28;20100;-61
2022/07/10 09:19:19;;;;;;;1.87;1.43;;;;;;;;;;5052300;28;20025;-61
2022/07/10 09:21:47;;;;;;;1.10;1.00;;;;;;;;;;5048212;28;20052;-61
2022/07/10 09:24:14;;;;;;;0.30;0.30;;;;;;;;;;5069953;28;20498;-61
2022/07/10 09:26:42;;;;;;;6.60;1.03;;;;;;;;;;5067037;28;20074;-61
2022/07/10 09:29:10;;;;;;;1.70;1.00;;;;;;;;;;5066871;28;20032;-61
2022/07/10 09:31:56;;;;;;;1.67;1.03;;;;;;;;;;5055083;28;20029;-61
2022/07/10 09:34:40;;;;;;;1.00;0.77;;;;;;;;;;5047679;28;20018;-61
2022/07/10 09:37:27;;;;;;;0.80;0.73;;;;;;;;;;5052059;28;20171;-61
2022/07/10 09:39:54;;;;;;;1.53;0.87;;;;;;;;;;5051857;28;20021;-60
2022/07/10 09:42:28;;;;;;;0.43;0.43;;;;;;;;;;5068612;28;20055;-61
2022/07/10 09:45:24;;;;;;;0.98;0.68;;;;;;;;;;5072219;28;20036;-60
2022/07/10 09:47:57;;;;;;;0.87;0.50;;;;;;;;;;5046523;28;20071;-60
2022/07/10 09:50:24;;;;;;;0.80;0.70;;;;;;;;;;5065257;28;20016;-61
2022/07/10 09:52:52;;;;;;;4.17;1.63;;;;;;;;;;5046721;28;20033;-60
2022/07/10 09:55:23;;;;;;;4.53;1.13;;;;;;;;;;5046500;28;20021;-60
2022/07/10 09:58:06;;;;;;;4.10;1.03;;;;;;;;;;5050856;28;20024;-61
2022/07/10 10:00:37;;;;;;;0.83;0.80;;;;;;;;;;5053048;28;20075;-60
2022/07/10 10:03:05;;;;;;;0.97;0.83;;;;;;;;;;5071852;28;20433;-60
2022/07/10 10:05:36;;;;;;;0.50;0.50;;;;;;;;;;5071930;28;20028;-61
2022/07/10 10:08:21;;;;;;;1.53;0.73;;;;;;;;;;5071763;28;20542;-60
2022/07/10 10:10:48;;;;;;;2.33;0.93;;;;;;;;;;5062060;28;20112;-60
2022/07/10 10:13:19;;;;;;;1.33;1.00;;;;;;;;;;5046298;28;20510;-61
2022/07/10 10:15:50;;;;;;;1.80;1.03;;;;;;;;;;5046352;28;20094;-61
2022/07/10 10:18:21;;;;;;;10.27;1.30;;;;;;;;;;5046902;28;20068;-60
2022/07/10 10:20:48;;;;;;;1.00;0.80;;;;;;;;;;5054841;28;20016;-61
2022/07/10 10:23:20;;;;;;;1.10;0.90;;;;;;;;;;5071410;28;20029;-60
2022/07/10 10:25:47;;;;;;;0.57;0.57;;;;;;;;;;5071556;28;20097;-61
2022/07/10 10:28:15;;;;;;;5.43;1.50;;;;;;;;;;5071811;28;20012;-61
2022/07/10 10:30:46;;;;;;;12.80;0.90;;;;;;;;;;5067621;28;20037;-61
2022/07/10 10:33:31;;;;;;;0.83;0.67;;;;;;;;;;5046055;28;20025;-60
2022/07/10 10:35:58;;;;;;;0.77;0.70;;;;;;;;;;5046323;28;20480;-60
2022/07/10 10:38:25;;;;;;;2.40;1.53;;;;;;;;;;5046451;28;20078;-61
2022/07/10 10:40:52;;;;;;;1.13;0.97;;;;;;;;;;5050778;28;20055;-60
2022/07/10 10:43:25;;;;;;;1.53;0.87;;;;;;;;;;5071491;28;20037;-60
2022/07/10 10:45:52;;;;;;;3.50;1.23;;;;;;;;;;5071264;28;20028;-61
2022/07/10 10:48:23;;;;;;;2.37;1.20;;;;;;;;;;5073780;28;20112;-60
2022/07/10 10:50:58;;;;;;;2.93;1.20;;;;;;;;;;5072129;28;20071;-60
2022/07/10 10:53:27;;;;;;;;;;;;;;;;;;5053091;28;20025;-60
2022/07/10 10:56:14;;;;;;;1.30;0.93;;;;;;;;;;5049690;28;19912;-60
2022/07/10 10:58:42;;;;;;;0.77;0.63;;;;;;;;;;5032772;28;20034;-60
2022/07/10 11:01:29;;;;;;;2.47;1.23;;;;;;;;;;5054361;28;20081;-60
2022/07/10 11:04:08;;;;;;;1.37;0.90;;;;;;;;;;5072459;28;20025;-60
2022/07/10 11:06:40;;;;;;;8.30;1.20;;;;;;;;;;5074294;28;20028;-60
2022/07/10 11:09:26;;;;;;;3.97;1.57;;;;;;;;;;5054898;28;20032;-60
2022/07/10 11:12:03;;;;;;;5.53;1.60;;;;;;;;;;5054490;28;20499;-61
2022/07/10 11:14:30;;;;;;;2.47;1.13;;;;;;;;;;5054427;28;20068;-61
2022/07/10 11:16:57;;;;;;;2.43;0.60;;;;;;;;;;5051012;28;20426;-61
2022/07/10 11:19:27;;;;;;;7.07;1.50;;;;;;;;;;5069256;28;20020;-60
2022/07/10 11:22:13;;;;;;;0.90;0.73;;;;;;;;;;5069051;28;20072;-60
2022/07/10 11:24:58;;;;;;;2.65;1.52;;;;;;;;;;5068626;28;20360;-60
2022/07/10 11:27:43;;;;;;;1.02;0.70;;;;;;;;;;5068486;28;20379;-60
2022/07/10 11:30:10;;;;;;;0.55;0.55;;;;;;;;;;5054283;28;20021;-60
2022/07/10 11:32:36;;;;;;;1.90;1.10;;;;;;;;;;5053763;28;20060;-61
2022/07/10 11:35:07;;;;;;;2.90;0.90;;;;;;;;;;5054296;28;20100;-60
2022/07/10 11:37:34;;;;;;;1.43;1.20;;;;;;;;;;5057962;28;20047;-61
2022/07/10 11:40:11;;;;;;;0.80;0.80;;;;;;;;;;5068750;28;20483;-60
2022/07/10 11:42:53;;;;;;;1.40;1.20;;;;;;;;;;5068744;28;20037;-60
2022/07/10 11:45:35;;;;;;;0.87;0.87;;;;;;;;;;5068729;28;20099;-60
2022/07/10 11:48:02;;;;;;;0.47;0.47;;;;;;;;;;5060622;28;20028;-61
2022/07/10 11:50:35;;;;;;;1.30;0.80;;;;;;;;;;5053768;28;20064;-60
2022/07/10 11:53:02;;;;;;;0.67;0.67;;;;;;;;;;5053227;28;20029;-60
2022/07/10 11:55:29;;;;;;;1.40;1.30;;;;;;;;;;5053962;28;20063;-61
2022/07/10 11:57:56;;;;;;;0.80;0.80;;;;;;;;;;5061987;28;20035;-60
2022/07/10 12:00:27;;;;;;;0.90;0.87;;;;;;;;;;5070648;28;20384;-60
2022/07/10 12:02:54;;;;;;;1.03;0.90;;;;;;;;;;5068320;28;20043;-60
2022/07/10 12:05:31;;;;;;;0.50;0.50;;;;;;;;;;5068324;28;20035;-60
2022/07/10 12:07:58;;;;;;;2.13;1.13;;;;;;;;;;5058479;28;20025;-60
2022/07/10 12:10:28;;;;;;;1.90;1.50;;;;;;;;;;5051687;28;20025;-62
2022/07/10 12:13:03;;;;;;;4.57;1.03;;;;;;;;;;5070225;28;20498;-60
2022/07/10 12:15:37;;;;;;;1.85;1.48;;;;;;;;;;5061690;28;20036;-60
2022/07/10 12:18:05;;;;;;;3.80;1.25;;;;;;;;;;5052789;28;20473;-60
2022/07/10 12:20:32;;;;;;;2.00;1.43;;;;;;;;;;5053029;28;20029;-60
2022/07/10 12:22:59;;;;;;;1.00;0.90;;;;;;;;;;5049245;28;20037;-61
2022/07/10 12:25:26;;;;;;;1.00;0.90;;;;;;;;;;5057335;28;20460;-60
2022/07/10 12:27:57;;;;;;;1.27;1.13;;;;;;;;;;5068081;28;20099;-60
2022/07/10 12:30:23;;;;;;;0.73;0.73;;;;;;;;;;5067460;28;20039;-60
2022/07/10 12:32:50;;;;;;;1.93;1.43;;;;;;;;;;5070762;28;20036;-60
2022/07/10 12:35:19;;;;;;;5.00;1.53;;;;;;;;;;5064630;28;20487;-60
2022/07/10 12:37:49;;;;;;;1.37;1.27;;;;;;;;;;5053041;28;20100;-60
2022/07/10 12:40:31;;;;;;;5.57;2.03;;;;;;;;;;5052827;28;20028;-60
2022/07/10 12:43:06;;;;;;;2.43;1.43;;;;;;;;;;5052351;28;20166;-60
2022/07/10 12:45:32;;;;;;;2.22;1.88;;;;;;;;;;5057871;28;20040;-61
2022/07/10 12:47:59;;;;;;;4.07;1.87;;;;;;;;;;5067144;28;20036;-60
2022/07/10 12:50:26;;;;;;;1.80;1.47;;;;;;;;;;5067070;28;20025;-60
2022/07/10 12:53:09;;;;;;;1.83;1.50;;;;;;;;;;5067467;28;20021;-60
2022/07/10 12:55:37;;;;;;;1.53;1.20;;;;;;;;;;5061531;28;20089;-60
2022/07/10 12:58:12;;;;;;;1.90;1.33;;;;;;;;;;5052576;28;20029;-60
2022/07/10 13:00:49;;;;;;;2.57;1.37;;;;;;;;;;5052572;28;20021;-60
2022/07/10 13:03:25;;;;;;;2.73;1.87;;;;;;;;;;5052295;28;20380;-60
2022/07/10 13:05:51;;;;;;;2.27;1.13;;;;;;;;;;5063798;28;20180;-60
2022/07/10 13:08:25;;;;;;;3.13;1.80;;;;;;;;;;5067139;28;20067;-60
2022/07/10 13:10:55;;;;;;;1.90;1.40;;;;;;;;;;5066090;28;20093;-60
2022/07/10 13:13:22;;;;;;;3.30;1.50;;;;;;;;;;5067246;28;20020;-60
2022/07/10 13:15:53;;;;;;;3.17;1.73;;;;;;;;;;5055141;28;20112;-60
2022/07/10 13:18:21;;;;;;;1.57;1.33;;;;;;;;;;5052340;28;20522;-60
2022/07/10 13:20:51;;;;;;;4.67;1.57;;;;;;;;;;5052365;28;20021;-60
2022/07/10 13:23:24;;;;;;;1.30;1.20;;;;;;;;;;5052073;28;20039;-60
2022/07/10 13:25:52;;;;;;;1.77;1.37;;;;;;;;;;5063519;28;20115;-60
2022/07/10 13:28:19;;;;;;;4.43;1.93;;;;;;;;;;5070826;28;20020;-60
2022/07/10 13:30:46;;;;;;;1.80;1.50;;;;;;;;;;5066787;28;20056;-61
2022/07/10 13:33:12;;;;;;;14.37;2.00;;;;;;;;;;5067028;28;20035;-60
2022/07/10 13:35:39;;;;;;;5.27;1.93;;;;;;;;;;5057019;28;20043;-60
2022/07/10 13:38:06;;;;;;;3.30;2.17;;;;;;;;;;5047199;28;20025;-60
2022/07/10 13:40:34;;;;;;;6.73;2.67;;;;;;;;;;5051970;28;20017;-61
2022/07/10 13:43:01;;;;;;;1.90;1.53;;;;;;;;;;5052000;28;20040;-61
2022/07/10 13:45:36;;;;;;;11.20;3.27;;;;;;;;;;5059000;28;20056;-61
2022/07/10 13:48:04;;;;;;;4.82;1.60;;;;;;;;;;5072126;28;20440;-61
2022/07/10 13:50:30;;;;;;;2.00;1.20;;;;;;;;;;5070943;28;20028;-60
2022/07/10 13:52:57;;;;;;;1.67;1.40;;;;;;;;;;5066858;28;20029;-61
2022/07/10 13:55:24;;;;;;;4.43;1.77;;;;;;;;;;5059571;28;20032;-61
2022/07/10 13:57:50;;;;;;;7.97;2.43;;;;;;;;;;5046330;28;20021;-60
2022/07/10 14:00:17;;;;;;;4.27;2.57;;;;;;;;;;5047066;28;20836;-61
2022/07/10 14:02:44;;;;;;;3.67;1.83;;;;;;;;;;5052685;28;20132;-61
2022/07/10 14:05:10;;;;;;;6.00;2.03;;;;;;;;;;5053841;28;20086;-61
2022/07/10 14:07:37;;;;;;;2.10;1.40;;;;;;;;;;5071908;28;20115;-61
2022/07/10 14:10:04;;;;;;;4.03;2.27;;;;;;;;;;5072011;28;20550;-60
2022/07/10 14:12:32;;;;;;;4.47;2.03;;;;;;;;;;5070803;28;20375;-61
2022/07/10 14:15:00;;;;;;;3.07;2.10;;;;;;;;;;5065936;28;20020;-63
2022/07/10 14:17:28;;;;;;;2.50;1.63;;;;;;;;;;5046472;28;20093;-61
2022/07/10 14:19:55;;;;;;;6.87;1.60;;;;;;;;;;5046529;28;20032;-61
2022/07/10 14:22:22;;;;;;;3.47;1.80;;;;;;;;;;5049683;28;20510;-62
2022/07/10 14:24:49;;;;;;;1.50;1.27;;;;;;;;;;5055443;28;20025;-62
2022/07/10 14:27:16;;;;;;;3.00;1.50;;;;;;;;;;5073472;28;20028;-61
2022/07/10 14:29:42;;;;;;;4.47;1.53;;;;;;;;;;5075239;28;20016;-63
2022/07/10 14:32:09;;;;;;;4.73;1.83;;;;;;;;;;5055800;28;20048;-63
2022/07/10 14:34:36;;;;;;;2.17;1.40;;;;;;;;;;5054921;28;20025;-64
2022/07/10 14:37:03;;;;;;;2.30;1.63;;;;;;;;;;5050005;28;20126;-63
2022/07/10 14:39:29;;;;;;;4.90;1.93;;;;;;;;;;5049898;28;20040;-63
2022/07/10 14:41:56;;;;;;;5.90;2.07;;;;;;;;;;5065982;28;20127;-64
2022/07/10 14:44:23;;;;;;;4.23;1.70;;;;;;;;;;5069507;28;20017;-63
2022/07/10 14:46:49;;;;;;;2.10;1.43;;;;;;;;;;5074809;28;20020;-63
2022/07/10 14:49:16;;;;;;;3.13;2.13;;;;;;;;;;5075198;28;20178;-63
2022/07/10 14:51:43;;;;;;;1.97;1.30;;;;;;;;;;5060150;28;20017;-65
2022/07/10 14:54:10;;;;;;;2.00;1.43;;;;;;;;;;5054918;28;20021;-64
2022/07/10 14:56:37;;;;;;;1.77;1.10;;;;;;;;;;5054743;28;20110;-63
2022/07/10 14:59:03;;;;;;;2.23;1.23;;;;;;;;;;5049082;28;20025;-64